createdAt,value
2018-03-30T00:00:44.821Z,19.01
2018-03-30T00:01:44.819Z,19.06
2018-03-30T00:02:44.788Z,19.01
2018-03-30T00:03:44.778Z,18.99
2018-03-30T00:04:44.819Z,19.05
2018-03-30T00:05:44.786Z,19
2018-03-30T00:06:44.806Z,18.99
2018-03-30T00:07:44.796Z,19.04
2018-03-30T00:08:44.850Z,18.98
2018-03-30T00:09:44.952Z,18.99
2018-03-30T00:10:44.843Z,19.03
2018-03-30T00:11:44.801Z,18.99
2018-03-30T00:12:44.772Z,18.98
2018-03-30T00:13:44.792Z,19.02
2018-03-30T00:14:44.906Z,18.97
2018-03-30T00:15:44.882Z,18.96
2018-03-30T00:16:44.826Z,19
2018-03-30T00:17:44.808Z,18.97
2018-03-30T00:18:44.795Z,18.94
2018-03-30T00:19:44.783Z,18.99
2018-03-30T00:20:44.802Z,18.96
2018-03-30T00:21:44.810Z,18.94
2018-03-30T00:22:44.810Z,18.99
2018-03-30T00:23:44.802Z,18.95
2018-03-30T00:24:44.809Z,18.93
2018-03-30T00:25:44.821Z,18.98
2018-03-30T00:26:44.771Z,18.92
2018-03-30T00:27:44.845Z,18.91
2018-03-30T00:28:44.780Z,18.96
2018-03-30T00:29:44.787Z,18.91
2018-03-30T00:30:44.877Z,18.91
2018-03-30T00:31:44.792Z,18.95
2018-03-30T00:32:44.778Z,18.91
2018-03-30T00:33:44.782Z,18.9
2018-03-30T00:34:44.822Z,18.95
2018-03-30T00:35:44.806Z,18.89
2018-03-30T00:36:44.782Z,18.89
2018-03-30T00:37:44.772Z,18.95
2018-03-30T00:38:44.768Z,18.89
2018-03-30T00:39:44.801Z,18.87
2018-03-30T00:40:44.802Z,18.93
2018-03-30T00:41:44.784Z,18.89
2018-03-30T00:42:44.819Z,18.88
2018-03-30T00:43:44.774Z,18.92
2018-03-30T00:44:44.777Z,18.87
2018-03-30T00:45:44.838Z,18.87
2018-03-30T00:46:44.800Z,18.91
2018-03-30T00:47:44.777Z,18.86
2018-03-30T00:48:44.772Z,18.85
2018-03-30T00:49:44.787Z,18.89
2018-03-30T00:50:44.806Z,18.83
2018-03-30T00:51:44.777Z,18.83
2018-03-30T00:52:44.776Z,18.88
2018-03-30T00:53:44.773Z,18.82
2018-03-30T00:54:44.815Z,18.82
2018-03-30T00:55:45.040Z,18.87
2018-03-30T00:56:44.778Z,18.81
2018-03-30T00:57:44.791Z,18.81
2018-03-30T00:58:44.831Z,18.86
2018-03-30T00:59:44.778Z,18.82
2018-03-30T01:00:44.784Z,18.83
2018-03-30T01:01:44.798Z,18.87
2018-03-30T01:02:44.773Z,18.81
2018-03-30T01:03:44.756Z,18.8
2018-03-30T01:04:44.797Z,18.84
2018-03-30T01:05:44.809Z,18.82
2018-03-30T01:06:44.756Z,18.8
2018-03-30T01:07:44.813Z,18.83
2018-03-30T01:08:44.777Z,18.79
2018-03-30T01:09:44.772Z,18.79
2018-03-30T01:10:44.772Z,18.84
2018-03-30T01:11:44.761Z,18.8
2018-03-30T01:12:44.781Z,18.79
2018-03-30T01:13:44.791Z,18.83
2018-03-30T01:14:44.790Z,18.77
2018-03-30T01:15:44.756Z,18.76
2018-03-30T01:16:44.782Z,18.81
2018-03-30T01:17:44.801Z,18.76
2018-03-30T01:18:44.781Z,18.75
2018-03-30T01:19:44.768Z,18.8
2018-03-30T01:20:44.759Z,18.76
2018-03-30T01:21:44.776Z,18.74
2018-03-30T01:22:44.800Z,18.8
2018-03-30T01:23:44.777Z,18.75
2018-03-30T01:24:44.789Z,18.74
2018-03-30T01:25:44.763Z,18.8
2018-03-30T01:26:44.782Z,18.74
2018-03-30T01:27:44.830Z,18.74
2018-03-30T01:28:44.833Z,18.78
2018-03-30T01:29:44.789Z,18.75
2018-03-30T01:30:44.808Z,18.73
2018-03-30T01:31:44.763Z,18.77
2018-03-30T01:32:44.795Z,18.72
2018-03-30T01:33:44.777Z,18.73
2018-03-30T01:34:44.762Z,18.76
2018-03-30T01:35:44.771Z,18.73
2018-03-30T01:36:44.742Z,18.71
2018-03-30T01:37:44.764Z,18.75
2018-03-30T01:38:44.766Z,18.71
2018-03-30T01:39:44.769Z,18.72
2018-03-30T01:40:44.766Z,18.75
2018-03-30T01:41:44.763Z,18.72
2018-03-30T01:42:44.759Z,18.71
2018-03-30T01:43:44.797Z,18.75
2018-03-30T01:44:44.752Z,18.72
2018-03-30T01:45:44.795Z,18.73
2018-03-30T01:46:44.736Z,18.75
2018-03-30T01:47:44.767Z,18.71
2018-03-30T01:48:44.791Z,18.71
2018-03-30T01:49:44.764Z,18.74
2018-03-30T01:50:44.765Z,18.7
2018-03-30T01:51:44.740Z,18.69
2018-03-30T01:52:44.767Z,18.73
2018-03-30T01:53:44.783Z,18.69
2018-03-30T01:54:44.754Z,18.69
2018-03-30T01:55:44.778Z,18.73
2018-03-30T01:56:44.760Z,18.69
2018-03-30T01:57:44.807Z,18.68
2018-03-30T01:58:44.768Z,18.73
2018-03-30T01:59:44.827Z,18.69
2018-03-30T02:00:44.772Z,18.68
2018-03-30T02:01:44.799Z,18.72
2018-03-30T02:02:44.757Z,18.68
2018-03-30T02:03:44.798Z,18.68
2018-03-30T02:04:44.755Z,18.71
2018-03-30T02:05:44.808Z,18.68
2018-03-30T02:06:44.794Z,18.67
2018-03-30T02:07:44.828Z,18.71
2018-03-30T02:08:44.761Z,18.66
2018-03-30T02:09:44.834Z,18.66
2018-03-30T02:10:44.839Z,18.7
2018-03-30T02:11:44.770Z,18.66
2018-03-30T02:12:44.772Z,18.65
2018-03-30T02:13:44.751Z,18.7
2018-03-30T02:14:44.779Z,18.64
2018-03-30T02:15:44.879Z,18.64
2018-03-30T02:16:44.878Z,18.69
2018-03-30T02:17:44.754Z,18.65
2018-03-30T02:18:44.783Z,18.63
2018-03-30T02:19:45.016Z,18.67
2018-03-30T02:20:44.758Z,18.63
2018-03-30T02:21:44.793Z,18.62
2018-03-30T02:22:44.753Z,18.68
2018-03-30T02:23:44.745Z,18.66
2018-03-30T02:24:44.776Z,18.64
2018-03-30T02:25:44.740Z,18.68
2018-03-30T02:26:44.757Z,18.63
2018-03-30T02:27:44.762Z,18.63
2018-03-30T02:28:44.747Z,18.66
2018-03-30T02:29:44.845Z,18.63
2018-03-30T02:30:44.790Z,18.62
2018-03-30T02:31:44.745Z,18.67
2018-03-30T02:32:44.766Z,18.62
2018-03-30T02:33:44.755Z,18.62
2018-03-30T02:34:44.772Z,18.65
2018-03-30T02:35:44.760Z,18.6
2018-03-30T02:36:44.758Z,18.58
2018-03-30T02:37:44.741Z,18.64
2018-03-30T02:38:44.733Z,18.6
2018-03-30T02:39:44.776Z,18.59
2018-03-30T02:40:44.755Z,18.63
2018-03-30T02:41:44.756Z,18.59
2018-03-30T02:42:44.729Z,18.58
2018-03-30T02:43:44.750Z,18.62
2018-03-30T02:44:44.768Z,18.58
2018-03-30T02:45:44.757Z,18.58
2018-03-30T02:46:44.754Z,18.62
2018-03-30T02:47:44.733Z,18.59
2018-03-30T02:48:44.738Z,18.57
2018-03-30T02:49:44.762Z,18.61
2018-03-30T02:50:44.736Z,18.57
2018-03-30T02:51:44.725Z,18.58
2018-03-30T02:52:44.749Z,18.61
2018-03-30T02:53:44.754Z,18.56
2018-03-30T02:54:45.001Z,18.56
2018-03-30T02:55:44.767Z,18.6
2018-03-30T02:56:44.741Z,18.55
2018-03-30T02:57:44.723Z,18.56
2018-03-30T02:58:44.737Z,18.59
2018-03-30T02:59:44.784Z,18.56
2018-03-30T03:00:44.762Z,18.57
2018-03-30T03:01:44.740Z,18.6
2018-03-30T03:02:44.745Z,18.56
2018-03-30T03:03:44.731Z,18.55
2018-03-30T03:04:44.759Z,18.58
2018-03-30T03:05:44.755Z,18.54
2018-03-30T03:06:44.733Z,18.53
2018-03-30T03:07:44.737Z,18.57
2018-03-30T03:08:44.736Z,18.54
2018-03-30T03:09:44.743Z,18.54
2018-03-30T03:10:44.727Z,18.57
2018-03-30T03:11:44.737Z,18.53
2018-03-30T03:12:44.720Z,18.53
2018-03-30T03:13:44.739Z,18.56
2018-03-30T03:14:44.732Z,18.53
2018-03-30T03:15:44.717Z,18.53
2018-03-30T03:16:44.757Z,18.57
2018-03-30T03:17:44.726Z,18.51
2018-03-30T03:18:44.750Z,18.51
2018-03-30T03:19:44.735Z,18.55
2018-03-30T03:20:44.739Z,18.5
2018-03-30T03:21:44.800Z,18.49
2018-03-30T03:22:44.737Z,18.55
2018-03-30T03:23:44.751Z,18.49
2018-03-30T03:24:44.769Z,18.49
2018-03-30T03:25:44.738Z,18.54
2018-03-30T03:26:45.041Z,18.5
2018-03-30T03:27:44.735Z,18.49
2018-03-30T03:28:44.760Z,18.53
2018-03-30T03:29:44.762Z,18.47
2018-03-30T03:30:44.778Z,18.46
2018-03-30T03:31:44.760Z,18.51
2018-03-30T03:32:44.737Z,18.46
2018-03-30T03:33:44.724Z,18.48
2018-03-30T03:34:44.716Z,18.52
2018-03-30T03:35:44.727Z,18.49
2018-03-30T03:36:44.734Z,18.49
2018-03-30T03:37:44.728Z,18.5
2018-03-30T03:38:44.756Z,18.49
2018-03-30T03:39:44.725Z,18.48
2018-03-30T03:40:44.721Z,18.52
2018-03-30T03:41:44.755Z,18.47
2018-03-30T03:42:44.711Z,18.47
2018-03-30T03:43:44.718Z,18.5
2018-03-30T03:44:44.730Z,18.46
2018-03-30T03:45:44.731Z,18.46
2018-03-30T03:46:44.747Z,18.5
2018-03-30T03:47:44.742Z,18.47
2018-03-30T03:48:44.710Z,18.45
2018-03-30T03:49:44.727Z,18.48
2018-03-30T03:50:44.725Z,18.43
2018-03-30T03:51:44.726Z,18.43
2018-03-30T03:52:44.719Z,18.47
2018-03-30T03:53:44.728Z,18.43
2018-03-30T03:54:44.704Z,18.42
2018-03-30T03:55:44.717Z,18.46
2018-03-30T03:56:44.758Z,18.44
2018-03-30T03:57:44.737Z,18.45
2018-03-30T03:58:44.721Z,18.48
2018-03-30T03:59:44.720Z,18.47
2018-03-30T04:00:44.728Z,18.48
2018-03-30T04:01:44.792Z,18.5
2018-03-30T04:02:44.712Z,18.5
2018-03-30T04:03:44.714Z,18.5
2018-03-30T04:04:44.760Z,18.54
2018-03-30T04:05:44.715Z,18.51
2018-03-30T04:06:44.698Z,18.51
2018-03-30T04:07:44.716Z,18.56
2018-03-30T04:08:44.720Z,18.56
2018-03-30T04:09:44.742Z,18.58
2018-03-30T04:10:44.733Z,18.59
2018-03-30T04:11:44.734Z,18.62
2018-03-30T04:12:44.724Z,18.63
2018-03-30T04:13:44.729Z,18.65
2018-03-30T04:14:44.701Z,18.66
2018-03-30T04:15:44.757Z,18.67
2018-03-30T04:16:44.834Z,18.7
2018-03-30T04:17:44.846Z,18.71
2018-03-30T04:18:44.733Z,18.72
2018-03-30T04:19:44.722Z,18.74
2018-03-30T04:20:44.731Z,18.75
2018-03-30T04:21:44.878Z,18.76
2018-03-30T04:22:44.711Z,18.78
2018-03-30T04:23:44.720Z,18.8
2018-03-30T04:24:44.713Z,18.82
2018-03-30T04:25:44.713Z,18.83
2018-03-30T04:26:44.734Z,18.85
2018-03-30T04:27:44.703Z,18.87
2018-03-30T04:28:44.716Z,18.88
2018-03-30T04:29:44.704Z,18.9
2018-03-30T04:30:44.702Z,18.91
2018-03-30T04:31:44.844Z,18.92
2018-03-30T04:32:44.716Z,18.95
2018-03-30T04:33:44.685Z,18.96
2018-03-30T04:34:44.709Z,18.96
2018-03-30T04:35:44.700Z,18.98
2018-03-30T04:36:44.735Z,19
2018-03-30T04:37:44.750Z,19.01
2018-03-30T04:38:44.705Z,19.02
2018-03-30T04:39:44.698Z,19.04
2018-03-30T04:40:44.718Z,19.05
2018-03-30T04:41:44.714Z,19.05
2018-03-30T04:42:44.725Z,19.08
2018-03-30T04:43:44.705Z,19.09
2018-03-30T04:44:44.699Z,19.09
2018-03-30T04:45:44.697Z,19.12
2018-03-30T04:46:44.704Z,19.13
2018-03-30T04:47:44.753Z,19.13
2018-03-30T04:48:44.696Z,19.14
2018-03-30T04:49:44.696Z,19.16
2018-03-30T04:50:44.706Z,19.18
2018-03-30T04:51:44.701Z,19.18
2018-03-30T04:52:44.744Z,19.19
2018-03-30T04:53:44.721Z,19.21
2018-03-30T04:54:44.698Z,19.22
2018-03-30T04:55:44.707Z,19.22
2018-03-30T04:56:44.720Z,19.24
2018-03-30T04:57:44.708Z,19.26
2018-03-30T04:58:44.694Z,19.26
2018-03-30T04:59:44.731Z,19.29
2018-03-30T05:00:44.680Z,19.29
2018-03-30T05:01:44.738Z,19.31
2018-03-30T05:02:44.717Z,19.32
2018-03-30T05:03:44.674Z,19.34
2018-03-30T05:04:44.690Z,19.34
2018-03-30T05:05:44.701Z,19.35
2018-03-30T05:06:44.748Z,19.37
2018-03-30T05:07:44.723Z,19.37
2018-03-30T05:08:44.691Z,19.38
2018-03-30T05:09:44.747Z,19.4
2018-03-30T05:10:44.704Z,19.4
2018-03-30T05:11:44.732Z,19.4
2018-03-30T05:12:44.736Z,19.42
2018-03-30T05:13:44.693Z,19.43
2018-03-30T05:14:44.695Z,19.45
2018-03-30T05:15:44.710Z,19.46
2018-03-30T05:16:44.709Z,19.48
2018-03-30T05:17:44.695Z,19.48
2018-03-30T05:18:44.718Z,19.49
2018-03-30T05:19:44.688Z,19.5
2018-03-30T05:20:44.708Z,19.5
2018-03-30T05:21:44.766Z,19.53
2018-03-30T05:22:44.703Z,19.52
2018-03-30T05:23:44.698Z,19.54
2018-03-30T05:24:44.739Z,19.55
2018-03-30T05:25:44.688Z,19.56
2018-03-30T05:26:44.728Z,19.56
2018-03-30T05:27:44.697Z,19.59
2018-03-30T05:28:44.698Z,19.6
2018-03-30T05:29:44.687Z,19.6
2018-03-30T05:30:44.697Z,19.62
2018-03-30T05:31:44.746Z,19.63
2018-03-30T05:32:44.682Z,19.64
2018-03-30T05:33:44.680Z,19.65
2018-03-30T05:34:44.692Z,19.66
2018-03-30T05:35:44.687Z,19.67
2018-03-30T05:36:44.692Z,19.68
2018-03-30T05:37:44.686Z,19.68
2018-03-30T05:38:44.683Z,19.69
2018-03-30T05:39:44.753Z,19.7
2018-03-30T05:40:44.735Z,19.7
2018-03-30T05:41:44.689Z,19.71
2018-03-30T05:42:44.676Z,19.71
2018-03-30T05:43:44.703Z,19.71
2018-03-30T05:44:44.691Z,19.71
2018-03-30T05:45:44.679Z,19.73
2018-03-30T05:46:44.700Z,19.73
2018-03-30T05:47:44.679Z,19.74
2018-03-30T05:48:44.664Z,19.74
2018-03-30T05:49:44.687Z,19.74
2018-03-30T05:50:44.699Z,19.74
2018-03-30T05:51:44.683Z,19.76
2018-03-30T05:52:44.705Z,19.76
2018-03-30T05:53:44.677Z,19.76
2018-03-30T05:54:44.665Z,19.78
2018-03-30T05:55:44.961Z,19.77
2018-03-30T05:56:44.672Z,19.78
2018-03-30T05:57:44.722Z,19.79
2018-03-30T05:58:44.681Z,19.79
2018-03-30T05:59:44.704Z,19.78
2018-03-30T06:00:44.715Z,19.8
2018-03-30T06:01:44.683Z,19.79
2018-03-30T06:02:44.702Z,19.81
2018-03-30T06:03:44.718Z,19.8
2018-03-30T06:04:44.677Z,19.8
2018-03-30T06:05:44.717Z,19.8
2018-03-30T06:06:44.719Z,19.81
2018-03-30T06:07:44.677Z,19.82
2018-03-30T06:08:44.679Z,19.83
2018-03-30T06:09:44.673Z,19.83
2018-03-30T06:10:44.693Z,19.83
2018-03-30T06:11:44.699Z,19.83
2018-03-30T06:12:44.662Z,19.85
2018-03-30T06:13:44.685Z,19.84
2018-03-30T06:14:44.683Z,19.84
2018-03-30T06:15:44.666Z,19.84
2018-03-30T06:16:44.683Z,19.84
2018-03-30T06:17:44.780Z,19.85
2018-03-30T06:18:44.793Z,19.85
2018-03-30T06:19:44.668Z,19.84
2018-03-30T06:20:44.737Z,19.84
2018-03-30T06:21:44.728Z,19.85
2018-03-30T06:22:44.715Z,19.84
2018-03-30T06:23:44.661Z,19.83
2018-03-30T06:24:44.657Z,19.85
2018-03-30T06:25:44.666Z,19.85
2018-03-30T06:26:44.686Z,19.86
2018-03-30T06:27:44.680Z,19.86
2018-03-30T06:28:44.686Z,19.85
2018-03-30T06:29:44.675Z,19.86
2018-03-30T06:30:44.663Z,19.85
2018-03-30T06:31:44.676Z,19.86
2018-03-30T06:32:44.820Z,19.85
2018-03-30T06:33:44.658Z,19.87
2018-03-30T06:34:44.664Z,19.87
2018-03-30T06:35:44.672Z,19.87
2018-03-30T06:36:44.675Z,19.88
2018-03-30T06:37:44.694Z,19.87
2018-03-30T06:38:44.670Z,19.87
2018-03-30T06:39:44.683Z,19.89
2018-03-30T06:40:44.686Z,19.87
2018-03-30T06:41:44.676Z,19.89
2018-03-30T06:42:44.670Z,19.9
2018-03-30T06:43:44.662Z,19.9
2018-03-30T06:44:44.674Z,19.92
2018-03-30T06:45:44.689Z,19.91
2018-03-30T06:46:44.693Z,19.91
2018-03-30T06:47:44.928Z,19.91
2018-03-30T06:48:44.657Z,19.92
2018-03-30T06:49:44.659Z,19.92
2018-03-30T06:50:44.675Z,19.92
2018-03-30T06:51:44.656Z,19.94
2018-03-30T06:52:44.707Z,19.93
2018-03-30T06:53:44.680Z,19.95
2018-03-30T06:54:44.646Z,19.95
2018-03-30T06:55:44.691Z,19.95
2018-03-30T06:56:44.712Z,19.95
2018-03-30T06:57:44.687Z,19.96
2018-03-30T06:58:44.678Z,19.96
2018-03-30T06:59:44.672Z,19.97
2018-03-30T07:00:44.659Z,19.97
2018-03-30T07:01:44.666Z,19.98
2018-03-30T07:02:44.731Z,19.98
2018-03-30T07:03:44.726Z,19.99
2018-03-30T07:04:44.673Z,20
2018-03-30T07:05:44.661Z,20
2018-03-30T07:06:44.634Z,20.01
2018-03-30T07:07:44.663Z,20.01
2018-03-30T07:08:44.663Z,20.02
2018-03-30T07:09:44.647Z,20.03
2018-03-30T07:10:44.668Z,20.03
2018-03-30T07:11:44.652Z,20.03
2018-03-30T07:12:44.680Z,20.03
2018-03-30T07:13:44.660Z,20.04
2018-03-30T07:14:44.668Z,20.04
2018-03-30T07:15:44.677Z,20.06
2018-03-30T07:16:44.665Z,20.06
2018-03-30T07:17:44.678Z,20.06
2018-03-30T07:18:44.680Z,20.07
2018-03-30T07:19:44.663Z,20.08
2018-03-30T07:20:44.656Z,20.08
2018-03-30T07:21:44.656Z,20.09
2018-03-30T07:22:44.656Z,20.1
2018-03-30T07:23:44.647Z,20.1
2018-03-30T07:24:44.647Z,20.11
2018-03-30T07:25:44.706Z,20.11
2018-03-30T07:26:44.658Z,20.11
2018-03-30T07:27:44.647Z,20.12
2018-03-30T07:28:44.658Z,20.12
2018-03-30T07:29:44.663Z,20.13
2018-03-30T07:30:44.644Z,20.14
2018-03-30T07:31:44.655Z,20.14
2018-03-30T07:32:44.650Z,20.14
2018-03-30T07:33:44.662Z,20.16
2018-03-30T07:34:44.685Z,20.16
2018-03-30T07:35:44.665Z,20.18
2018-03-30T07:36:44.627Z,20.18
2018-03-30T07:37:44.657Z,20.19
2018-03-30T07:38:44.786Z,20.2
2018-03-30T07:39:44.653Z,20.21
2018-03-30T07:40:44.644Z,20.2
2018-03-30T07:41:44.653Z,20.2
2018-03-30T07:42:44.647Z,20.22
2018-03-30T07:43:44.867Z,20.22
2018-03-30T07:44:44.649Z,20.22
2018-03-30T07:45:44.630Z,20.23
2018-03-30T07:46:44.645Z,20.24
2018-03-30T07:47:44.706Z,20.24
2018-03-30T07:48:44.659Z,20.25
2018-03-30T07:49:44.671Z,20.25
2018-03-30T07:50:44.649Z,20.26
2018-03-30T07:51:44.687Z,20.26
2018-03-30T07:52:44.641Z,20.26
2018-03-30T07:53:44.638Z,20.25
2018-03-30T07:54:44.673Z,20.26
2018-03-30T07:55:44.650Z,20.26
2018-03-30T07:56:44.634Z,20.26
2018-03-30T07:57:44.673Z,20.25
2018-03-30T07:58:44.652Z,20.26
2018-03-30T07:59:44.644Z,20.26
2018-03-30T08:00:44.697Z,20.26
2018-03-30T08:01:44.639Z,20.27
2018-03-30T08:02:44.649Z,20.26
2018-03-30T08:03:44.680Z,20.27
2018-03-30T08:04:44.715Z,20.27
2018-03-30T08:05:44.649Z,20.27
2018-03-30T08:06:44.657Z,20.27
2018-03-30T08:07:44.656Z,20.27
2018-03-30T08:08:44.649Z,20.26
2018-03-30T08:09:44.691Z,20.28
2018-03-30T08:10:44.636Z,20.27
2018-03-30T08:11:44.649Z,20.27
2018-03-30T08:12:44.636Z,20.29
2018-03-30T08:13:44.654Z,20.29
2018-03-30T08:14:44.748Z,20.29
2018-03-30T08:15:44.655Z,20.3
2018-03-30T08:16:44.638Z,20.29
2018-03-30T08:17:44.896Z,20.3
2018-03-30T08:18:45.060Z,20.31
2018-03-30T08:19:45.467Z,20.3
2018-03-30T08:20:44.637Z,20.3
2018-03-30T08:21:44.656Z,20.31
2018-03-30T08:22:44.662Z,20.31
2018-03-30T08:23:44.655Z,20.32
2018-03-30T08:24:44.632Z,20.33
2018-03-30T08:25:44.647Z,20.32
2018-03-30T08:26:44.636Z,20.33
2018-03-30T08:27:44.633Z,20.34
2018-03-30T08:28:44.674Z,20.33
2018-03-30T08:29:44.628Z,20.33
2018-03-30T08:30:44.660Z,20.34
2018-03-30T08:31:44.636Z,20.35
2018-03-30T08:32:44.845Z,20.36
2018-03-30T08:33:44.637Z,20.35
2018-03-30T08:34:44.661Z,20.36
2018-03-30T08:35:44.676Z,20.35
2018-03-30T08:36:44.658Z,20.36
2018-03-30T08:37:44.637Z,20.37
2018-03-30T08:38:44.882Z,20.37
2018-03-30T08:39:45.218Z,20.37
2018-03-30T08:40:44.622Z,20.36
2018-03-30T08:41:44.668Z,20.38
2018-03-30T08:42:44.625Z,20.38
2018-03-30T08:43:44.623Z,20.37
2018-03-30T08:44:44.654Z,20.37
2018-03-30T08:45:44.678Z,20.38
2018-03-30T08:46:44.636Z,20.37
2018-03-30T08:47:44.644Z,20.38
2018-03-30T08:48:44.637Z,20.37
2018-03-30T08:49:44.720Z,20.29
2018-03-30T08:50:44.631Z,20.07
2018-03-30T08:51:44.638Z,19.92
2018-03-30T08:52:44.637Z,19.85
2018-03-30T08:53:44.635Z,19.84
2018-03-30T08:54:44.661Z,19.87
2018-03-30T08:55:44.629Z,19.92
2018-03-30T08:56:44.664Z,19.96
2018-03-30T08:57:44.642Z,20.01
2018-03-30T08:58:44.649Z,20.04
2018-03-30T08:59:44.633Z,20.07
2018-03-30T09:00:44.646Z,20.1
2018-03-30T09:01:44.615Z,20.15
2018-03-30T09:02:44.636Z,20.18
2018-03-30T09:03:44.649Z,20.21
2018-03-30T09:04:44.634Z,20.23
2018-03-30T09:05:44.696Z,20.26
2018-03-30T09:06:44.730Z,20.28
2018-03-30T09:07:44.633Z,20.31
2018-03-30T09:08:44.619Z,20.32
2018-03-30T09:09:44.741Z,20.34
2018-03-30T09:10:44.735Z,20.37
2018-03-30T09:11:44.634Z,20.38
2018-03-30T09:12:44.737Z,20.4
2018-03-30T09:13:44.640Z,20.43
2018-03-30T09:14:44.624Z,20.46
2018-03-30T09:15:44.650Z,20.46
2018-03-30T09:16:44.615Z,20.48
2018-03-30T09:17:44.650Z,20.5
2018-03-30T09:18:44.633Z,20.51
2018-03-30T09:19:44.639Z,20.52
2018-03-30T09:20:44.669Z,20.54
2018-03-30T09:21:44.705Z,20.57
2018-03-30T09:22:44.635Z,20.57
2018-03-30T09:23:44.627Z,20.59
2018-03-30T09:24:44.892Z,20.59
2018-03-30T09:25:44.698Z,20.62
2018-03-30T09:26:46.783Z,20.61
2018-03-30T09:27:44.623Z,20.62
2018-03-30T09:28:44.658Z,20.66
2018-03-30T09:29:44.800Z,20.67
2018-03-30T09:30:44.700Z,20.68
2018-03-30T09:31:44.891Z,20.69
2018-03-30T09:32:44.870Z,20.69
2018-03-30T09:33:44.799Z,20.71
2018-03-30T09:34:44.731Z,20.71
2018-03-30T09:35:44.679Z,20.72
2018-03-30T09:36:44.852Z,20.73
2018-03-30T09:37:44.794Z,20.73
2018-03-30T09:38:47.802Z,20.73
2018-03-30T09:39:44.822Z,20.74
2018-03-30T09:40:44.863Z,20.75
2018-03-30T09:41:44.717Z,20.76
2018-03-30T09:42:44.717Z,20.76
2018-03-30T09:43:44.762Z,20.79
2018-03-30T09:44:44.846Z,20.78
2018-03-30T09:45:44.904Z,20.78
2018-03-30T09:46:44.856Z,20.82
2018-03-30T09:47:45.175Z,20.81
2018-03-30T09:48:44.917Z,20.79
2018-03-30T09:49:44.683Z,20.79
2018-03-30T09:50:44.733Z,20.81
2018-03-30T09:51:45.009Z,20.83
2018-03-30T09:52:46.726Z,20.85
2018-03-30T09:53:44.728Z,20.85
2018-03-30T09:54:44.863Z,20.87
2018-03-30T09:55:44.680Z,20.89
2018-03-30T09:56:44.735Z,20.88
2018-03-30T09:57:44.672Z,20.86
2018-03-30T09:58:44.704Z,20.89
2018-03-30T09:59:44.664Z,20.88
2018-03-30T10:00:44.625Z,20.89
2018-03-30T10:01:44.619Z,20.88
2018-03-30T10:02:44.636Z,20.85
2018-03-30T10:03:44.608Z,20.83
2018-03-30T10:04:44.607Z,20.86
2018-03-30T10:05:44.600Z,20.87
2018-03-30T10:06:44.604Z,20.83
2018-03-30T10:07:44.709Z,20.85
2018-03-30T10:08:44.611Z,20.85
2018-03-30T10:09:44.591Z,20.86
2018-03-30T10:10:44.607Z,20.85
2018-03-30T10:11:44.701Z,20.84
2018-03-30T10:12:44.615Z,20.78
2018-03-30T10:13:44.600Z,20.84
2018-03-30T10:14:44.608Z,20.86
2018-03-30T10:15:44.663Z,20.85
2018-03-30T10:16:44.615Z,20.86
2018-03-30T10:17:44.621Z,20.88
2018-03-30T10:18:44.677Z,20.87
2018-03-30T10:19:44.710Z,20.88
2018-03-30T10:20:44.727Z,20.88
2018-03-30T10:21:44.618Z,20.87
2018-03-30T10:22:44.630Z,20.87
2018-03-30T10:23:44.605Z,20.87
2018-03-30T10:24:44.595Z,20.89
2018-03-30T10:25:44.644Z,20.89
2018-03-30T10:26:44.590Z,20.89
2018-03-30T10:27:44.764Z,20.89
2018-03-30T10:28:44.607Z,20.9
2018-03-30T10:29:44.612Z,20.89
2018-03-30T10:30:44.641Z,20.9
2018-03-30T10:31:44.599Z,20.91
2018-03-30T10:32:44.655Z,20.9
2018-03-30T10:33:44.893Z,20.91
2018-03-30T10:34:44.601Z,20.92
2018-03-30T10:35:44.609Z,20.92
2018-03-30T10:36:44.599Z,20.93
2018-03-30T10:37:44.601Z,20.93
2018-03-30T10:38:44.667Z,20.94
2018-03-30T10:39:44.606Z,20.92
2018-03-30T10:40:44.621Z,20.92
2018-03-30T10:41:44.606Z,20.92
2018-03-30T10:42:44.581Z,20.94
2018-03-30T10:43:44.618Z,20.95
2018-03-30T10:44:44.618Z,20.95
2018-03-30T10:45:44.575Z,20.96
2018-03-30T10:46:44.628Z,20.96
2018-03-30T10:47:44.620Z,20.96
2018-03-30T10:48:44.654Z,20.97
2018-03-30T10:49:44.621Z,20.98
2018-03-30T10:50:44.618Z,20.99
2018-03-30T10:51:44.620Z,20.98
2018-03-30T10:52:44.577Z,21.01
2018-03-30T10:53:44.586Z,20.96
2018-03-30T10:54:44.684Z,20.95
2018-03-30T10:55:44.599Z,20.99
2018-03-30T10:56:44.598Z,20.99
2018-03-30T10:57:44.610Z,20.98
2018-03-30T10:58:44.597Z,20.98
2018-03-30T10:59:44.616Z,20.98
2018-03-30T11:00:44.675Z,20.97
2018-03-30T11:01:44.582Z,20.97
2018-03-30T11:02:44.598Z,20.95
2018-03-30T11:03:44.628Z,20.95
2018-03-30T11:04:44.586Z,20.96
2018-03-30T11:05:44.703Z,20.95
2018-03-30T11:06:44.631Z,20.94
2018-03-30T11:07:44.594Z,20.94
2018-03-30T11:08:44.578Z,20.94
2018-03-30T11:09:44.668Z,20.93
2018-03-30T11:10:44.595Z,20.92
2018-03-30T11:11:44.624Z,20.91
2018-03-30T11:12:44.601Z,20.91
2018-03-30T11:13:44.596Z,20.9
2018-03-30T11:14:44.598Z,20.9
2018-03-30T11:15:44.648Z,20.88
2018-03-30T11:16:44.617Z,20.89
2018-03-30T11:17:44.580Z,20.88
2018-03-30T11:18:44.573Z,20.87
2018-03-30T11:19:44.580Z,20.9
2018-03-30T11:20:44.579Z,20.88
2018-03-30T11:21:44.605Z,20.85
2018-03-30T11:22:44.584Z,20.87
2018-03-30T11:23:44.593Z,20.87
2018-03-30T11:24:44.593Z,20.83
2018-03-30T11:25:44.593Z,20.84
2018-03-30T11:26:44.617Z,20.83
2018-03-30T11:27:44.612Z,20.83
2018-03-30T11:28:44.582Z,20.83
2018-03-30T11:29:44.576Z,20.82
2018-03-30T11:30:44.581Z,20.8
2018-03-30T11:31:44.599Z,20.81
2018-03-30T11:32:44.580Z,20.8
2018-03-30T11:33:44.579Z,20.81
2018-03-30T11:34:44.589Z,20.81
2018-03-30T11:35:44.579Z,20.79
2018-03-30T11:36:44.748Z,20.79
2018-03-30T11:37:44.633Z,20.79
2018-03-30T11:38:44.577Z,20.79
2018-03-30T11:39:44.593Z,20.8
2018-03-30T11:40:44.624Z,20.81
2018-03-30T11:41:44.601Z,20.81
2018-03-30T11:42:44.588Z,20.8
2018-03-30T11:43:44.579Z,20.81
2018-03-30T11:44:44.629Z,20.8
2018-03-30T11:45:44.591Z,20.8
2018-03-30T11:46:44.609Z,20.81
2018-03-30T11:47:44.567Z,20.8
2018-03-30T11:48:44.575Z,20.83
2018-03-30T11:49:44.576Z,20.82
2018-03-30T11:50:44.576Z,20.82
2018-03-30T11:51:44.624Z,20.84
2018-03-30T11:52:44.562Z,20.82
2018-03-30T11:53:44.577Z,20.82
2018-03-30T11:54:44.588Z,20.81
2018-03-30T11:55:44.575Z,20.81
2018-03-30T11:56:44.598Z,20.82
2018-03-30T11:57:44.584Z,20.81
2018-03-30T11:58:44.600Z,20.82
2018-03-30T11:59:44.562Z,20.81
2018-03-30T12:00:44.568Z,20.8
2018-03-30T12:01:44.589Z,20.8
2018-03-30T12:02:44.582Z,20.79
2018-03-30T12:03:44.564Z,20.81
2018-03-30T12:04:44.571Z,20.8
2018-03-30T12:05:44.585Z,20.78
2018-03-30T12:06:44.600Z,20.78
2018-03-30T12:07:44.562Z,20.79
2018-03-30T12:08:44.572Z,20.78
2018-03-30T12:09:44.567Z,20.76
2018-03-30T12:10:44.564Z,20.76
2018-03-30T12:11:44.673Z,20.75
2018-03-30T12:12:44.552Z,20.76
2018-03-30T12:13:44.564Z,20.76
2018-03-30T12:14:44.580Z,20.75
2018-03-30T12:15:44.579Z,20.74
2018-03-30T12:16:44.597Z,20.75
2018-03-30T12:17:44.592Z,20.74
2018-03-30T12:18:44.556Z,20.74
2018-03-30T12:19:44.571Z,20.73
2018-03-30T12:20:44.670Z,20.74
2018-03-30T12:21:44.656Z,20.74
2018-03-30T12:22:44.573Z,20.73
2018-03-30T12:23:44.566Z,20.73
2018-03-30T12:24:44.589Z,20.73
2018-03-30T12:25:44.557Z,20.73
2018-03-30T12:26:44.562Z,20.72
2018-03-30T12:27:44.630Z,20.73
2018-03-30T12:28:44.553Z,20.72
2018-03-30T12:29:44.560Z,20.69
2018-03-30T12:30:44.640Z,20.67
2018-03-30T12:31:44.560Z,20.66
2018-03-30T12:32:44.575Z,20.66
2018-03-30T12:33:44.588Z,20.69
2018-03-30T12:34:44.561Z,20.69
2018-03-30T12:35:44.565Z,20.72
2018-03-30T12:36:44.579Z,20.72
2018-03-30T12:37:44.601Z,20.72
2018-03-30T12:38:44.555Z,20.73
2018-03-30T12:39:44.579Z,20.75
2018-03-30T12:40:44.564Z,20.76
2018-03-30T12:41:44.585Z,20.78
2018-03-30T12:42:44.612Z,20.78
2018-03-30T12:43:44.560Z,20.8
2018-03-30T12:44:44.565Z,20.81
2018-03-30T12:45:44.556Z,20.83
2018-03-30T12:46:44.845Z,20.82
2018-03-30T12:47:44.588Z,20.84
2018-03-30T12:48:44.560Z,20.85
2018-03-30T12:49:44.561Z,20.86
2018-03-30T12:50:44.550Z,20.86
2018-03-30T12:51:44.558Z,20.86
2018-03-30T12:52:44.565Z,20.89
2018-03-30T12:53:44.564Z,20.9
2018-03-30T12:54:44.602Z,20.9
2018-03-30T12:55:44.564Z,20.91